Time;durP1;ratioP1;P1;durP2;ratioP2;P2;SDS_P1;SDS_P2;PMS_P1;PMS_P2;Temp;Humidity;BMP_temperature;BMP_pressure;BME280_temperature;BME280_humidity;BME280_pressure;Samples;Min_cycle;Max_cycle;Signal;HPM_P1;HPM_P2
2023/05/08 00:02:13;;;;;;;4.77;3.00;;;;;;;9.69;100.00;102387.34;7388237;19;20974;-37
2023/05/08 00:04:43;;;;;;;6.03;3.00;;;;;;;9.23;100.00;102393.50;7393904;19;20457;-37
2023/05/08 00:07:12;;;;;;;9.60;4.83;;;;;;;9.13;100.00;102388.50;7387131;19;20439;-37
2023/05/08 00:09:42;;;;;;;8.17;3.90;;;;;;;9.03;100.00;102385.22;7391822;19;20427;-38
2023/05/08 00:12:11;;;;;;;6.90;3.47;;;;;;;8.91;100.00;102374.00;7389280;19;20431;-37
2023/05/08 00:14:41;;;;;;;7.43;5.00;;;;;;;8.95;100.00;102376.03;7391641;19;20443;-38
2023/05/08 00:17:13;;;;;;;6.43;3.00;;;;;;;8.85;100.00;102373.56;7388814;19;20443;-37
2023/05/08 00:19:43;;;;;;;6.30;4.10;;;;;;;8.84;100.00;102371.75;7393265;19;20407;-38
2023/05/08 00:22:12;;;;;;;6.20;3.53;;;;;;;8.76;100.00;102364.38;7388346;19;20439;-37
2023/05/08 00:24:42;;;;;;;6.90;4.20;;;;;;;8.74;100.00;102360.78;7391803;19;20446;-37
2023/05/08 00:27:11;;;;;;;6.70;3.50;;;;;;;8.72;100.00;102362.34;7389232;19;21010;-38
2023/05/08 00:29:41;;;;;;;9.50;4.63;;;;;;;8.84;100.00;102358.88;7392181;19;20436;-38
2023/05/08 00:32:13;;;;;;;7.67;3.80;;;;;;;8.72;100.00;102371.75;7387825;19;20467;-37
2023/05/08 00:34:44;;;;;;;9.70;4.90;;;;;;;8.73;100.00;102363.25;7393065;19;20983;-37
2023/05/08 00:37:13;;;;;;;5.50;3.67;;;;;;;8.66;100.00;102372.16;7387982;19;20430;-37
2023/05/08 00:39:43;;;;;;;7.13;3.93;;;;;;;8.58;100.00;102368.13;7391276;19;20939;-38
2023/05/08 00:42:12;;;;;;;4.93;3.43;;;;;;;8.58;100.00;102369.03;7388184;19;20435;-37
2023/05/08 00:44:42;;;;;;;5.93;4.00;;;;;;;8.44;100.00;102370.53;7396263;19;21094;-38
2023/05/08 00:47:14;;;;;;;5.37;3.50;;;;;;;8.33;100.00;102371.38;7394769;19;20479;-39
2023/05/08 00:49:44;;;;;;;7.03;4.00;;;;;;;8.41;100.00;102369.41;7398180;19;20433;-37
2023/05/08 00:52:14;;;;;;;5.43;4.03;;;;;;;8.32;100.00;102367.88;7394974;19;20826;-37
2023/05/08 00:54:44;;;;;;;7.47;4.57;;;;;;;8.41;100.00;102370.28;7397648;19;20459;-38
2023/05/08 00:57:13;;;;;;;6.77;3.37;;;;;;;8.28;100.00;102367.53;7394692;19;20777;-38
2023/05/08 00:59:44;;;;;;;5.10;3.33;;;;;;;8.21;100.00;102374.78;7398309;19;20437;-39
2023/05/08 01:02:16;;;;;;;5.40;3.63;;;;;;;8.15;100.00;102376.00;7394212;19;21095;-37
2023/05/08 01:04:47;;;;;;;7.07;4.20;;;;;;;8.18;100.00;102372.00;7397763;19;20471;-38
2023/05/08 01:07:17;;;;;;;5.40;3.53;;;;;;;8.13;100.00;102380.09;7394849;19;20465;-37
2023/05/08 01:09:46;;;;;;;8.17;3.90;;;;;;;8.07;100.00;102377.97;7396338;19;20410;-37
2023/05/08 01:12:19;;;;;;;7.17;3.77;;;;;;;8.09;100.00;102377.31;7395367;19;20443;-39
2023/05/08 01:15:00;;;;;;;6.47;4.00;;;;;;;8.12;100.00;102379.22;7396399;19;20455;-38
2023/05/08 01:17:42;;;;;;;6.07;3.50;;;;;;;8.07;100.00;102383.09;7395173;19;20914;-37
2023/05/08 01:20:19;;;;;;;5.07;3.43;;;;;;;8.10;100.00;102388.47;7396634;19;20407;-37
2023/05/08 01:23:14;;;;;;;5.70;3.70;;;;;;;7.93;100.00;102393.22;7393376;19;20840;-37
2023/05/08 01:25:57;;;;;;;6.23;3.10;;;;;;;7.94;100.00;102392.44;7392424;19;20459;-37
2023/05/08 01:29:18;;;;;;;5.73;3.70;;;;;;;7.94;100.00;102395.00;7393961;19;20455;-37
2023/05/08 01:32:03;;;;;;;5.80;3.40;;;;;;;7.87;100.00;102392.72;7385773;19;20451;-38
2023/05/08 01:34:34;;;;;;;6.10;3.53;;;;;;;7.83;100.00;102383.88;7392226;19;20451;-36
2023/05/08 01:37:06;;;;;;;6.63;3.80;;;;;;;7.79;100.00;102378.38;7392961;19;20464;-37
2023/05/08 01:39:41;;;;;;;6.70;3.60;;;;;;;7.78;100.00;102376.56;7395182;19;21055;-38
2023/05/08 01:42:26;;;;;;;6.87;3.77;;;;;;;7.77;100.00;102369.63;7389017;19;20455;-38
2023/05/08 01:44:59;;;;;;;5.87;3.67;;;;;;;7.74;100.00;102366.84;7394434;19;20478;-37
2023/05/08 01:47:32;;;;;;;5.33;3.40;;;;;;;7.64;100.00;102371.22;7392172;19;20443;-36
2023/05/08 01:50:06;;;;;;;4.80;3.30;;;;;;;7.65;100.00;102362.75;7393670;19;20420;-36
2023/05/08 01:52:38;;;;;;;6.20;3.70;;;;;;;7.68;100.00;102367.22;7392859;19;20443;-36
2023/05/08 01:55:11;;;;;;;7.23;3.67;;;;;;;7.69;100.00;102369.03;7394181;19;20439;-37
2023/05/08 01:57:45;;;;;;;7.27;3.77;;;;;;;7.67;100.00;102373.16;7393253;19;20446;-37
2023/05/08 02:00:17;;;;;;;6.47;4.07;;;;;;;7.55;100.00;102376.53;7395262;19;20427;-37
2023/05/08 02:02:49;;;;;;;6.10;3.50;;;;;;;7.76;100.00;102383.25;7392895;19;20447;-37
2023/05/08 02:05:20;;;;;;;7.43;3.73;;;;;;;7.71;100.00;102382.91;7395378;19;20884;-37
2023/05/08 02:07:51;;;;;;;5.47;3.80;;;;;;;7.62;100.00;102397.56;7390367;19;21146;-36
2023/05/08 02:10:24;;;;;;;5.70;3.87;;;;;;;7.60;100.00;102388.84;7395137;19;20408;-37
2023/05/08 02:12:55;;;;;;;5.77;4.00;;;;;;;7.61;100.00;102390.63;7392094;19;20810;-38
2023/05/08 02:15:26;;;;;;;7.90;3.97;;;;;;;7.60;100.00;102394.91;7394509;19;20439;-37
2023/05/08 02:18:00;;;;;;;7.90;4.30;;;;;;;7.55;100.00;102394.50;7392033;19;20443;-37
2023/05/08 02:20:30;;;;;;;5.10;3.50;;;;;;;7.49;100.00;102390.56;7396178;19;20402;-37
2023/05/08 02:23:00;;;;;;;5.50;3.80;;;;;;;7.36;100.00;102389.56;7392029;19;20999;-37
2023/05/08 02:25:30;;;;;;;7.10;4.03;;;;;;;7.33;100.00;102389.31;7395559;19;20451;-37
2023/05/08 02:28:00;;;;;;;6.70;3.47;;;;;;;7.25;100.00;102385.22;7392961;19;20458;-36
2023/05/08 02:30:30;;;;;;;8.00;4.70;;;;;;;7.29;100.00;102387.28;7394950;19;21211;-40
2023/05/08 02:33:03;;;;;;;6.10;3.90;;;;;;;7.37;100.00;102386.22;7391485;19;20443;-36
2023/05/08 02:35:32;;;;;;;7.57;4.17;;;;;;;7.40;100.00;102386.47;7394974;19;20519;-37
2023/05/08 02:38:03;;;;;;;6.13;4.10;;;;;;;7.24;100.00;102389.44;7391426;19;20443;-38
2023/05/08 02:40:34;;;;;;;6.60;4.33;;;;;;;7.23;100.00;102384.22;7397304;19;20781;-36
2023/05/08 02:43:03;;;;;;;6.03;4.10;;;;;;;7.35;100.00;102380.09;7391839;19;20451;-37
2023/05/08 02:45:34;;;;;;;8.13;4.43;;;;;;;7.33;100.00;102381.59;7394669;19;20444;-36
2023/05/08 02:48:12;;;;;;;7.30;4.00;;;;;;;7.38;100.00;102379.44;7392058;19;21010;-37
2023/05/08 02:50:45;;;;;;;6.63;4.37;;;;;;;7.15;100.00;102378.44;7394947;19;20423;-37
2023/05/08 02:53:20;;;;;;;7.17;4.30;;;;;;;7.09;100.00;102378.84;7391400;19;20484;-37
2023/05/08 02:55:52;;;;;;;6.63;4.37;;;;;;;7.07;100.00;102372.69;7393157;19;20422;-37
2023/05/08 02:58:26;;;;;;;8.17;4.90;;;;;;;6.97;100.00;102372.72;7392535;19;20473;-36
2023/05/08 03:01:05;;;;;;;9.63;5.13;;;;;;;6.87;100.00;102368.50;7393673;19;20399;-36
2023/05/08 03:03:40;;;;;;;7.60;4.27;;;;;;;6.99;100.00;102360.91;7390899;19;20472;-37
2023/05/08 03:06:14;;;;;;;6.37;4.40;;;;;;;6.87;100.00;102361.69;7391703;19;20615;-36
2023/05/08 03:08:44;;;;;;;6.63;4.00;;;;;;;6.86;100.00;102365.03;7395947;19;20454;-37
2023/05/08 03:11:17;;;;;;;7.27;4.63;;;;;;;6.94;100.00;102359.63;7393738;19;20399;-38
2023/05/08 03:13:48;;;;;;;7.87;5.70;;;;;;;6.92;100.00;102358.59;7394799;19;20477;-37
2023/05/08 03:16:20;;;;;;;7.67;4.40;;;;;;;6.83;100.00;102359.63;7390372;19;20801;-37
2023/05/08 03:18:59;;;;;;;5.87;4.00;;;;;;;6.94;100.00;102357.97;7391534;19;20415;-36
2023/05/08 03:21:30;;;;;;;8.30;5.50;;;;;;;6.89;100.00;102352.44;7391969;19;20435;-37
2023/05/08 03:24:01;;;;;;;8.50;5.40;;;;;;;6.97;100.00;102354.75;7386522;19;20448;-36
2023/05/08 03:26:34;;;;;;;12.63;5.50;;;;;;;6.93;100.00;102351.03;7390856;19;20452;-37
2023/05/08 03:29:04;;;;;;;7.60;4.90;;;;;;;6.87;100.00;102353.97;7394114;19;20411;-37
2023/05/08 03:31:35;;;;;;;6.80;3.90;;;;;;;6.88;100.00;102350.63;7390770;19;20435;-37
2023/05/08 03:34:07;;;;;;;9.60;5.77;;;;;;;6.81;100.00;102356.03;7392181;19;20448;-36
2023/05/08 03:36:37;;;;;;;7.87;5.07;;;;;;;6.80;100.00;102361.94;7390782;19;20419;-36
2023/05/08 03:39:07;;;;;;;10.30;5.07;;;;;;;6.72;100.00;102366.44;7392650;19;20498;-36
2023/05/08 03:41:37;;;;;;;7.03;4.70;;;;;;;6.87;100.00;102356.53;7390109;19;20415;-37
2023/05/08 03:44:06;;;;;;;6.47;4.30;;;;;;;6.80;100.00;102359.38;7391934;19;21094;-37
2023/05/08 03:46:37;;;;;;;9.30;4.80;;;;;;;6.80;100.00;102351.69;7389976;19;21415;-36
2023/05/08 03:49:10;;;;;;;10.63;5.63;;;;;;;6.74;100.00;102357.22;7392660;19;20419;-36
2023/05/08 03:51:40;;;;;;;10.53;6.90;;;;;;;6.61;100.00;102350.16;7390379;19;20823;-37
2023/05/08 03:54:10;;;;;;;7.97;5.07;;;;;;;6.54;100.00;102355.53;7391478;19;20780;-36
2023/05/08 03:56:40;;;;;;;6.90;4.60;;;;;;;6.64;100.00;102349.50;7389660;19;20419;-36
2023/05/08 03:59:16;;;;;;;10.63;5.70;;;;;;;6.53;100.00;102351.19;7392722;19;20439;-39
2023/05/08 04:01:50;;;;;;;6.87;4.67;;;;;;;6.56;100.00;102346.31;7390337;19;21017;-37
2023/05/08 04:04:26;;;;;;;7.87;4.50;;;;;;;6.64;100.00;102348.59;7391659;19;20452;-36
2023/05/08 04:07:01;;;;;;;11.17;7.17;;;;;;;6.89;100.00;102328.47;7388202;19;20467;-38
2023/05/08 04:09:37;;;;;;;12.07;7.60;;;;;;;7.54;100.00;102338.78;7392119;19;20770;-37
2023/05/08 04:12:13;;;;;;;13.00;7.53;;;;;;;7.26;100.00;102346.84;7388026;19;20475;-37
2023/05/08 04:14:45;;;;;;;15.57;8.90;;;;;;;6.85;100.00;102358.09;7392800;19;22141;-36
2023/05/08 04:17:17;;;;;;;14.60;8.53;;;;;;;6.74;100.00;102361.44;7388897;19;20434;-36
2023/05/08 04:19:53;;;;;;;13.13;7.47;;;;;;;6.72;100.00;102357.84;7399538;19;20453;-44
2023/05/08 04:22:24;;;;;;;6.40;4.70;;;;;;;6.69;100.00;102352.47;7395918;19;20467;-37
2023/05/08 04:24:56;;;;;;;8.90;6.13;;;;;;;6.79;100.00;102347.31;7398538;19;20435;-37
2023/05/08 04:27:27;;;;;;;9.60;5.40;;;;;;;6.74;100.00;102356.31;7395487;19;20505;-36
2023/05/08 04:29:56;;;;;;;8.20;5.30;;;;;;;6.57;100.00;102355.78;7396978;19;20939;-36
2023/05/08 04:32:26;;;;;;;12.20;7.37;;;;;;;6.55;100.00;102357.34;7394635;19;20446;-37
2023/05/08 04:34:58;;;;;;;9.30;5.63;;;;;;;6.69;100.00;102342.19;7397125;19;20447;-37
2023/05/08 04:37:30;;;;;;;42.50;22.90;;;;;;;7.12;100.00;102345.72;7395570;19;20547;-37
2023/05/08 04:40:00;;;;;;;39.17;23.03;;;;;;;7.55;100.00;102344.81;7397534;19;20428;-36
2023/05/08 04:42:29;;;;;;;75.03;39.50;;;;;;;7.67;100.00;102356.06;7395201;19;20443;-37
2023/05/08 04:44:59;;;;;;;23.57;13.53;;;;;;;7.38;100.00;102375.19;7396488;19;20443;-38
2023/05/08 04:47:29;;;;;;;11.00;7.57;;;;;;;7.11;100.00;102385.00;7394315;19;20430;-37
2023/05/08 04:50:01;;;;;;;7.50;4.80;;;;;;;6.96;100.00;102376.94;7399782;19;20403;-38
2023/05/08 04:52:31;;;;;;;14.10;9.57;;;;;;;6.87;100.00;102378.75;7394172;19;20447;-37
2023/05/08 04:55:01;;;;;;;7.53;5.00;;;;;;;6.81;100.00;102370.56;7396503;19;20796;-38
2023/05/08 04:57:30;;;;;;;8.73;5.33;;;;;;;6.81;100.00;102371.44;7396076;19;20461;-37
2023/05/08 05:00:00;;;;;;;18.50;10.73;;;;;;;6.95;100.00;102369.09;7396466;19;20411;-37
2023/05/08 05:02:29;;;;;;;11.37;6.90;;;;;;;6.91;100.00;102372.22;7394438;19;20431;-37
2023/05/08 05:05:02;;;;;;;8.83;5.97;;;;;;;6.96;100.00;102373.47;7395592;19;20995;-37
2023/05/08 05:07:31;;;;;;;6.70;4.63;;;;;;;6.91;100.00;102380.78;7395086;19;20471;-38
2023/05/08 05:10:01;;;;;;;8.13;5.70;;;;;;;6.91;100.00;102383.34;7396717;19;20423;-38
2023/05/08 05:12:30;;;;;;;8.50;5.67;;;;;;;6.89;100.00;102384.91;7394695;19;20463;-40
2023/05/08 05:15:00;;;;;;;7.43;4.73;;;;;;;6.97;100.00;102393.25;7397202;19;20458;-38
2023/05/08 05:17:29;;;;;;;10.00;6.00;;;;;;;6.93;100.00;102394.66;7395117;19;20443;-40
2023/05/08 05:20:02;;;;;;;7.27;4.90;;;;;;;6.92;100.00;102397.09;7397408;19;20415;-37
2023/05/08 05:22:31;;;;;;;10.10;5.47;;;;;;;6.96;100.00;102406.81;7390509;19;20454;-39
2023/05/08 05:25:01;;;;;;;7.60;5.37;;;;;;;7.00;100.00;102414.94;7396528;19;20822;-39
2023/05/08 05:27:30;;;;;;;7.80;5.17;;;;;;;7.04;100.00;102416.06;7394626;19;20814;-39
2023/05/08 05:30:00;;;;;;;11.07;6.00;;;;;;;7.10;100.00;102437.13;7396947;19;20408;-40
2023/05/08 05:32:30;;;;;;;9.70;5.80;;;;;;;7.14;100.00;102434.00;7395300;19;21290;-42
2023/05/08 05:35:02;;;;;;;7.93;5.53;;;;;;;7.20;100.00;102445.56;7393823;19;20467;-39
2023/05/08 05:37:31;;;;;;;8.10;5.63;;;;;;;7.16;100.00;102475.22;7393588;19;20443;-39
2023/05/08 05:40:01;;;;;;;8.37;5.50;;;;;;;7.16;100.00;102478.69;7396166;19;20408;-40
2023/05/08 05:42:30;;;;;;;7.50;5.23;;;;;;;7.21;100.00;102480.72;7388036;19;20512;-38
2023/05/08 05:45:03;;;;;;;8.67;5.87;;;;;;;7.24;100.00;102493.84;7395659;19;20511;-39
2023/05/08 05:47:33;;;;;;;7.37;5.10;;;;;;;7.35;100.00;102508.47;7393556;19;20440;-39
2023/05/08 05:50:05;;;;;;;7.87;4.57;;;;;;;7.38;100.00;102531.81;7396314;19;21274;-37
2023/05/08 05:52:35;;;;;;;9.00;6.27;;;;;;;7.41;100.00;102542.38;7393370;19;20443;-37
2023/05/08 05:55:05;;;;;;;9.53;5.73;;;;;;;7.46;100.00;102547.88;7395309;19;20994;-37
2023/05/08 05:57:34;;;;;;;9.57;5.50;;;;;;;7.51;100.00;102555.97;7394038;19;20444;-37
2023/05/08 06:00:04;;;;;;;9.40;5.80;;;;;;;7.63;100.00;102566.38;7395879;19;20743;-37
2023/05/08 06:02:34;;;;;;;6.93;5.07;;;;;;;7.62;100.00;102565.47;7393040;19;20457;-38
2023/05/08 06:05:08;;;;;;;8.10;5.63;;;;;;;7.64;100.00;102575.88;7395058;19;20440;-39
2023/05/08 06:07:38;;;;;;;8.83;5.40;;;;;;;7.74;100.00;102559.56;7391306;19;20523;-38
2023/05/08 06:10:09;;;;;;;13.00;6.53;;;;;;;7.79;100.00;102564.28;7395312;19;20396;-38
2023/05/08 06:12:39;;;;;;;15.33;6.50;;;;;;;7.83;100.00;102557.72;7392413;19;21010;-40
2023/05/08 06:15:10;;;;;;;8.47;5.57;;;;;;;7.82;100.00;102561.06;7395811;19;20526;-37
2023/05/08 06:17:39;;;;;;;12.13;5.67;;;;;;;7.88;100.00;102568.38;7394674;19;20450;-37
2023/05/08 06:20:12;;;;;;;9.50;6.20;;;;;;;7.90;100.00;102559.13;7394581;19;20428;-37
2023/05/08 06:22:42;;;;;;;9.80;5.83;;;;;;;7.90;100.00;102549.72;7394016;19;20507;-38
2023/05/08 06:25:12;;;;;;;11.90;5.73;;;;;;;7.97;100.00;102558.84;7395188;19;20451;-37
2023/05/08 06:27:42;;;;;;;10.10;6.70;;;;;;;8.05;100.00;102552.66;7393470;19;20454;-38
2023/05/08 06:30:12;;;;;;;9.90;5.90;;;;;;;8.10;100.00;102546.22;7395479;19;20403;-43
2023/05/08 06:32:42;;;;;;;11.07;6.00;;;;;;;8.29;100.00;102544.19;7391734;19;20431;-37
2023/05/08 06:35:17;;;;;;;8.83;5.97;;;;;;;8.30;100.00;102535.75;7395008;19;20464;-40
2023/05/08 06:37:47;;;;;;;12.70;5.87;;;;;;;8.35;100.00;102529.25;7393138;19;20458;-40
2023/05/08 06:40:16;;;;;;;10.40;6.20;;;;;;;8.42;100.00;102508.41;7394783;19;20968;-37
2023/05/08 06:42:47;;;;;;;8.93;5.50;;;;;;;8.46;100.00;102507.88;7389569;19;20476;-37
2023/05/08 06:45:16;;;;;;;12.53;6.67;;;;;;;8.49;100.00;102497.81;7394466;19;20442;-39
2023/05/08 06:47:46;;;;;;;10.47;6.43;;;;;;;8.57;100.00;102492.41;7392689;19;20431;-37
2023/05/08 06:50:18;;;;;;;8.50;5.53;;;;;;;8.73;100.00;102481.63;7395204;19;20424;-37
2023/05/08 06:52:48;;;;;;;8.67;5.87;;;;;;;8.79;100.00;102461.50;7391722;19;20447;-41
2023/05/08 06:55:18;;;;;;;19.73;11.00;;;;;;;8.99;100.00;102462.13;7394107;19;20471;-37
2023/05/08 06:57:47;;;;;;;11.83;6.37;;;;;;;9.15;100.00;102452.19;7393086;19;20435;-38
2023/05/08 07:00:17;;;;;;;11.37;6.40;;;;;;;9.20;100.00;102439.66;7394133;19;20404;-38
2023/05/08 07:02:47;;;;;;;11.73;5.93;;;;;;;9.34;100.00;102426.91;7393897;19;20459;-42
2023/05/08 07:05:19;;;;;;;12.10;6.30;;;;;;;9.51;100.00;102423.88;7394384;19;20448;-39
2023/05/08 07:07:49;;;;;;;10.73;6.10;;;;;;;9.47;100.00;102385.78;7392372;19;20442;-38
2023/05/08 07:10:19;;;;;;;9.50;6.40;;;;;;;9.50;100.00;102361.94;7393801;19;20419;-38
2023/05/08 07:12:49;;;;;;;12.13;7.10;;;;;;;9.57;100.00;102326.41;7391860;19;20439;-38
2023/05/08 07:15:20;;;;;;;12.27;6.60;;;;;;;9.61;100.00;102317.22;7393835;19;20459;-38
2023/05/08 07:17:55;;;;;;;11.50;6.60;;;;;;;9.63;100.00;102296.72;7390926;19;20480;-39
2023/05/08 07:20:27;;;;;;;11.50;6.70;;;;;;;9.65;100.00;102285.69;7394279;19;20479;-37
2023/05/08 07:22:57;;;;;;;8.70;5.70;;;;;;;9.67;100.00;102285.81;7390252;19;20465;-37
2023/05/08 07:25:27;;;;;;;9.80;6.70;;;;;;;9.74;100.00;102272.56;7393160;19;20446;-36
2023/05/08 07:27:56;;;;;;;10.67;6.37;;;;;;;9.76;100.00;102280.41;7390673;19;20447;-37
2023/05/08 07:30:29;;;;;;;9.67;6.17;;;;;;;9.71;100.00;102280.09;7392666;19;20791;-38
2023/05/08 07:32:59;;;;;;;12.07;6.57;;;;;;;9.79;100.00;102289.25;7390644;19;20787;-37
2023/05/08 07:35:31;;;;;;;10.17;6.53;;;;;;;9.86;100.00;102286.28;7393076;19;20986;-41
2023/05/08 07:38:00;;;;;;;13.43;7.20;;;;;;;9.96;100.00;102266.31;7390232;19;20455;-38
2023/05/08 07:40:30;;;;;;;13.00;7.33;;;;;;;10.04;100.00;102260.00;7388515;19;20435;-37
2023/05/08 07:42:59;;;;;;;11.80;7.17;;;;;;;10.09;100.00;102247.41;7390530;19;20447;-39
2023/05/08 07:45:29;;;;;;;12.63;7.17;;;;;;;10.13;100.00;102228.78;7392861;19;20529;-43
2023/05/08 07:48:00;;;;;;;11.70;7.20;;;;;;;10.07;100.00;102215.47;7388743;19;20432;-37
2023/05/08 07:50:33;;;;;;;10.07;6.47;;;;;;;10.09;100.00;102219.03;7394079;19;20411;-37
2023/05/08 07:53:02;;;;;;;12.27;7.50;;;;;;;10.13;100.00;102213.31;7393435;19;20451;-42
2023/05/08 07:55:32;;;;;;;12.03;7.10;;;;;;;10.25;100.00;102192.56;7399239;19;20451;-38
2023/05/08 07:58:02;;;;;;;11.37;7.37;;;;;;;10.23;100.00;102158.97;7397325;19;20467;-38
2023/05/08 08:00:31;;;;;;;11.97;7.70;;;;;;;10.29;100.00;102148.13;7398699;19;20415;-37
2023/05/08 08:03:01;;;;;;;12.97;8.43;;;;;;;10.39;100.00;102147.97;7396900;19;20457;-38
2023/05/08 08:05:34;;;;;;;13.00;8.00;;;;;;;10.36;100.00;102126.22;7399900;19;20465;-40
2023/05/08 08:08:04;;;;;;;11.97;7.60;;;;;;;10.60;100.00;102129.50;7397497;19;20451;-39
2023/05/08 08:10:34;;;;;;;12.20;7.50;;;;;;;10.87;100.00;102102.75;7399001;19;20422;-40
2023/05/08 08:13:04;;;;;;;12.33;7.70;;;;;;;11.06;100.00;102066.03;7392924;19;20445;-37
2023/05/08 08:15:33;;;;;;;12.83;7.73;;;;;;;10.97;100.00;102052.56;7399337;19;20444;-38
2023/05/08 08:18:03;;;;;;;11.83;7.17;;;;;;;11.09;100.00;102037.81;7397938;19;20451;-37
2023/05/08 08:20:35;;;;;;;13.63;8.07;;;;;;;11.28;100.00;102020.84;7398133;19;20486;-37
2023/05/08 08:23:05;;;;;;;11.70;7.67;;;;;;;11.44;100.00;101984.72;7396204;19;20994;-37
2023/05/08 08:25:34;;;;;;;12.60;7.80;;;;;;;11.43;100.00;101956.25;7398779;19;20439;-37
2023/05/08 08:28:04;;;;;;;13.70;8.00;;;;;;;11.49;100.00;101915.25;7397370;19;20443;-39
2023/05/08 08:30:33;;;;;;;12.53;7.67;;;;;;;11.65;100.00;101895.41;7398575;19;20947;-37
2023/05/08 08:33:04;;;;;;;10.87;7.47;;;;;;;11.81;100.00;101855.78;7395924;19;20475;-36
2023/05/08 08:35:37;;;;;;;13.13;7.70;;;;;;;11.74;100.00;101839.03;7398770;19;20435;-38
2023/05/08 08:38:06;;;;;;;18.60;10.03;;;;;;;12.04;100.00;101869.09;7396161;19;20439;-40
2023/05/08 08:40:40;;;;;;;17.47;9.50;;;;;;;12.20;100.00;101824.25;7398914;19;20411;-39
2023/05/08 08:43:10;;;;;;;14.07;8.47;;;;;;;12.14;100.00;101786.88;7395436;19;20450;-38
2023/05/08 08:45:40;;;;;;;30.40;18.90;;;;;;;12.36;100.00;101789.69;7398050;19;20870;-42
2023/05/08 08:48:12;;;;;;;13.07;7.53;;;;;;;12.19;100.00;101748.31;7395648;19;20451;-37
2023/05/08 08:50:49;;;;;;;11.93;7.40;;;;;;;12.40;100.00;101734.66;7398431;19;20399;-40
2023/05/08 08:53:23;;;;;;;32.70;17.93;;;;;;;12.77;100.00;101735.59;7394446;19;20443;-38
2023/05/08 08:55:55;;;;;;;19.33;11.53;;;;;;;12.97;100.00;101692.50;7396655;19;21098;-39
2023/05/08 08:58:30;;;;;;;16.50;10.20;;;;;;;12.57;100.00;101629.41;7397624;19;20481;-40
2023/05/08 09:01:02;;;;;;;11.90;7.33;;;;;;;12.27;100.00;101627.97;7396672;19;20398;-37
2023/05/08 09:03:32;;;;;;;13.50;9.17;;;;;;;12.21;100.00;101661.31;7395296;19;20447;-39
2023/05/08 09:06:05;;;;;;;13.50;7.90;;;;;;;12.21;100.00;101640.59;7393821;19;20975;-37
2023/05/08 09:08:34;;;;;;;9.37;6.10;;;;;;;12.04;100.00;101625.97;7396194;19;20974;-37
2023/05/08 09:11:04;;;;;;;11.20;6.57;;;;;;;12.01;100.00;101624.94;7395360;19;20972;-38
2023/05/08 09:13:34;;;;;;;10.10;6.60;;;;;;;12.10;100.00;101636.63;7393976;19;20458;-37
2023/05/08 09:16:03;;;;;;;10.97;7.10;;;;;;;12.18;100.00;101619.78;7395671;19;20416;-38
2023/05/08 09:18:33;;;;;;;11.47;6.90;;;;;;;12.19;100.00;101618.94;7395095;19;21094;-38
2023/05/08 09:21:07;;;;;;;8.30;5.90;;;;;;;12.29;100.00;101610.84;7395129;19;20419;-37
2023/05/08 09:23:37;;;;;;;9.50;6.60;;;;;;;12.26;100.00;101618.44;7394608;19;20472;-38
2023/05/08 09:26:08;;;;;;;10.97;7.40;;;;;;;12.42;100.00;101624.38;7394654;19;20392;-38
2023/05/08 09:28:37;;;;;;;10.00;6.70;;;;;;;12.61;100.00;101612.31;7395975;19;20447;-38
2023/05/08 09:31:07;;;;;;;8.93;6.03;;;;;;;12.74;100.00;101601.69;7396049;19;20436;-36
2023/05/08 09:33:46;;;;;;;10.40;6.23;;;;;;;12.70;100.00;101584.25;7394905;19;20801;-37
2023/05/08 09:36:30;;;;;;;9.80;6.60;;;;;;;12.71;100.00;101580.81;7395302;19;20435;-38
2023/05/08 09:39:00;;;;;;;14.70;7.47;;;;;;;12.80;100.00;101583.84;7393555;19;20467;-38
2023/05/08 09:41:30;;;;;;;57.17;34.03;;;;;;;13.03;100.00;101591.75;7391560;19;20399;-38
2023/05/08 09:44:03;;;;;;;12.47;7.67;;;;;;;13.04;100.00;101577.13;7395565;19;20427;-38
2023/05/08 09:46:33;;;;;;;21.33;13.17;;;;;;;12.96;100.00;101584.53;7393669;19;20411;-43
2023/05/08 09:49:04;;;;;;;11.57;7.23;;;;;;;13.01;100.00;101572.69;7395264;19;20431;-38
2023/05/08 09:51:36;;;;;;;14.33;8.00;;;;;;;12.87;100.00;101555.66;7393915;19;20404;-38
2023/05/08 09:54:18;;;;;;;14.63;8.40;;;;;;;13.02;100.00;101573.59;7394497;19;20423;-37
2023/05/08 09:56:48;;;;;;;10.60;7.10;;;;;;;12.95;100.00;101575.00;7391093;19;20435;-38
2023/05/08 09:59:26;;;;;;;13.43;8.00;;;;;;;13.09;100.00;101560.94;7395635;19;20395;-38
2023/05/08 10:01:56;;;;;;;12.70;7.27;;;;;;;13.05;100.00;101566.84;7392534;19;21011;-38
2023/05/08 10:04:36;;;;;;;13.40;8.03;;;;;;;13.02;100.00;101556.31;7396098;19;20451;-37
2023/05/08 10:07:09;;;;;;;9.40;6.33;;;;;;;13.15;100.00;101568.13;7394225;19;20463;-40
2023/05/08 10:09:38;;;;;;;12.10;6.47;;;;;;;13.29;100.00;101545.41;7395562;19;21010;-37
2023/05/08 10:12:19;;;;;;;11.73;7.63;;;;;;;13.67;100.00;101552.16;7392382;19;20526;-38
2023/05/08 10:14:48;;;;;;;10.23;6.33;;;;;;;14.06;100.00;101553.75;7395966;19;20487;-37
2023/05/08 10:17:28;;;;;;;14.30;7.20;;;;;;;14.33;100.00;101543.56;7391856;19;20439;-38
2023/05/08 10:20:01;;;;;;;8.40;5.87;;;;;;;14.54;100.00;101558.19;7394547;19;20406;-36
2023/05/08 10:22:35;;;;;;;12.70;7.13;;;;;;;14.72;100.00;101566.69;7391949;19;21118;-37
2023/05/08 10:25:05;;;;;;;8.70;5.70;;;;;;;14.70;100.00;101583.03;7394296;19;20476;-38
2023/05/08 10:27:40;;;;;;;11.90;5.70;;;;;;;14.68;100.00;101590.75;7393699;19;20451;-38
2023/05/08 10:30:11;;;;;;;8.70;5.77;;;;;;;14.91;100.00;101606.38;7395545;19;20407;-38
2023/05/08 10:32:45;;;;;;;10.00;5.57;;;;;;;15.35;100.00;101581.94;7392319;19;20515;-43
2023/05/08 10:35:15;;;;;;;8.63;5.90;;;;;;;15.32;100.00;101636.41;7395747;19;20455;-38
2023/05/08 10:37:47;;;;;;;9.50;5.50;;;;;;;15.24;100.00;101659.56;7390319;19;20452;-38
2023/05/08 10:40:17;;;;;;;9.43;5.10;;;;;;;15.47;100.00;101681.19;7395625;19;20436;-40
2023/05/08 10:42:47;;;;;;;8.40;5.77;;;;;;;15.60;100.00;101720.66;7392779;19;21352;-38
2023/05/08 10:45:17;;;;;;;10.30;4.87;;;;;;;15.68;100.00;101700.13;7394986;19;20458;-37
2023/05/08 10:47:53;;;;;;;7.30;5.23;;;;;;;15.75;100.00;101700.38;7392555;19;20443;-39
2023/05/08 10:50:44;;;;;;;7.73;4.73;;;;;;;15.58;100.00;101746.59;7395508;19;20403;-38
2023/05/08 10:53:20;;;;;;;19.10;5.93;;;;;;;15.69;100.00;101746.97;7391882;19;20447;-37
2023/05/08 10:55:52;;;;;;;10.07;5.60;;;;;;;15.91;100.00;101758.19;7394987;19;20478;-38
2023/05/08 10:58:32;;;;;;;9.63;6.20;;;;;;;16.01;100.00;101801.06;7392989;19;20443;-38
2023/05/08 11:01:20;;;;;;;7.60;5.17;;;;;;;15.99;100.00;101828.75;7393518;19;20448;-38
2023/05/08 11:03:53;;;;;;;10.20;5.40;;;;;;;15.93;100.00;101892.75;7394436;19;20522;-37
2023/05/08 11:06:46;;;;;;;9.00;6.00;;;;;;;15.94;100.00;101940.47;7394391;19;20484;-37
2023/05/08 11:09:29;;;;;;;7.50;4.87;;;;;;;16.00;100.00;101953.72;7393046;19;21005;-37
2023/05/08 11:12:07;;;;;;;8.93;5.63;;;;;;;15.98;100.00;101978.81;7394075;19;20411;-38
2023/05/08 11:14:39;;;;;;;10.30;5.50;;;;;;;15.95;100.00;101964.78;7394816;19;20479;-37
2023/05/08 11:17:10;;;;;;;9.73;4.60;;;;;;;15.88;100.00;101989.66;7390242;19;20411;-38
2023/05/08 11:19:40;;;;;;;9.20;4.93;;;;;;;15.83;100.00;102002.47;7394772;19;20411;-38
2023/05/08 11:22:17;;;;;;;9.20;5.60;;;;;;;15.76;100.00;102029.09;7389367;19;20827;-38
2023/05/08 11:24:56;;;;;;;8.20;5.20;;;;;;;15.71;100.00;102020.19;7393811;19;20431;-38
2023/05/08 11:27:39;;;;;;;9.70;5.20;;;;;;;15.88;100.00;101997.44;7388079;19;20407;-38
2023/05/08 11:30:24;;;;;;;7.17;4.80;;;;;;;16.12;100.00;102013.19;7393029;19;20482;-39
2023/05/08 11:33:26;;;;;;;7.33;4.30;;;;;;;16.27;100.00;102032.84;7388696;19;20806;-38
2023/05/08 11:35:57;;;;;;;7.43;4.37;;;;;;;16.20;100.00;102031.69;7391261;19;20508;-37
2023/05/08 11:38:30;;;;;;;6.73;4.00;;;;;;;15.84;100.00;102050.22;7387559;19;20471;-38
2023/05/08 11:41:07;;;;;;;5.13;3.03;;;;;;;15.95;100.00;102042.88;7391851;19;20877;-39
2023/05/08 11:43:56;;;;;;;8.60;5.00;;;;;;;16.21;100.00;102043.91;7388174;19;20447;-38